Downers Grove, IL (60515)

11:52 PM CST on January 25, 2015 (GMT -0600)
Oak Creek | Change Station
CLOSE
Current Station
Personal Weather Station
Location: Downers Grove, IL
Elevation: 719 ft
Nearby Weather Stations

Elev 719 ft 41.82 °N, 88.02 °W | Updated 12 minutes ago

Mostly Cloudy
Mostly Cloudy
22.6 °F
Feels Like 18 °F
N
3.2
Wind Variable Wind from NNW

Today
High -- | Low -- °F
--% Chance of Precip.
Yesterday
High -- | Low -- °F
Precip. -- in
7:10 AM 4:58 PM
Waxing Crescent, 39% visible
Pressure 29.97 in
Visibility 10.0 miles
Clouds Mostly Cloudy 2400 ft
Windchill 18 °F
Dew Point 19 °F
Humidity 85%
Rainfall 0.02 in
Snow Depth Not available.
UV 0 out of 12
Pollen .10 out of 12
Air Quality Not available.
Flu Activity Not available.
SPECI KORD 260544Z 05013KT 10SM BKN024 M04/M09 A2997 RMK AO2 T10441094

More Conditions Fewer Conditions

Pressure 29.97 in
Visibility 10.0 miles
Clouds Mostly Cloudy 2400 ft
Windchill 18 °F
Dew Point 19 °F
Humidity 85%
Rainfall 0.02 in
Snow Depth Not available.
UV 0 out of 12
Pollen .10 out of 12
Air Quality Not available.
Flu Activity Not available.
SPECI KORD 260544Z 05013KT 10SM BKN024 M04/M09 A2997 RMK AO2 T10441094

More Conditions Fewer Conditions

10-Day Weather Forecast

Almanac

Astronomy

Jan. 25, 2015 Rise Set
Actual Time
Civil Twilight
Nautical Twilight
Astronomical Twilight
Moon
Length of Visible Light
Length of Day
Tomorrow will be .
, % of the Moon is Illuminated

Today's Extremes

State Highs State Lows

Community

WunderPhotos

Upload Photos

1,790,155 photos uploaded!

WunderBlogs® & News

Nearby

Air Quality

  Air Quality AQ Index Pollutant
Not available.

Snow Depth

Station Depth Elevation

Earthquake Activity

City Distance Mag. Time & Date
Minimum magnitude displayed is 2.5.

Coastal Water Temperatures

Place Temperature

Nearby Weather Stations